This is the latest recevied weather packets stored in our database for station/object WQ5C-13. If no packets are shown the sender has not sent any weather packets the latest 10 day(s).
| Time | Temp. | Humidity | Pressure | Rain* | Wind** | Luminosity | Snow |
|---|---|---|---|---|---|---|---|
| 1778247636 | 16.11° C | 89% | 1013.4 hPa | 0 mm | - | - | - |
| 1778244615 | 15.56° C | 90% | 1013.7 hPa | 0 mm | - | - | - |
| 1778242815 | 15.56° C | 89% | 1013.4 hPa | 0 mm | - | - | - |
| 1778239255 | 16.11° C | 84% | 1014.1 hPa | 0 mm | - | - | - |
| 1778228415 | 16.67° C | 81% | 1013.3 hPa | 0 mm | - | - | - |
| 1778225415 | 16.67° C | 78% | 1014.3 hPa | 0 mm | - | - | - |
| 1778221815 | 16.67° C | 78% | 1014.1 hPa | 0 mm | - | - | - |
| 1778220015 | 16.67° C | 77% | 1015 hPa | 0 mm | - | - | - |
| 1778217636 | 16.11° C | 78% | 1015.4 hPa | 0 mm | - | - | - |
| 1778215215 | 16.11° C | 79% | 1013.9 hPa | 0 mm | - | - | - |
| 1778214615 | 16.11° C | 78% | 1013.6 hPa | 0 mm | - | - | - |
| 1778209815 | 16.67° C | 76% | 1015.6 hPa | 0 mm | - | - | - |
| 1778207435 | 16.67° C | 73% | 1014.2 hPa | 0 mm | - | - | - |
| 1778206835 | 17.22° C | 72% | 1014.2 hPa | 0 mm | - | - | - |
| 1778204415 | 17.78° C | 69% | 1013.5 hPa | 0 mm | - | - | - |
| 1778202015 | 17.78° C | 66% | 1011.7 hPa | 0 mm | - | - | - |
| 1778196615 | 18.89° C | 65% | 1015.1 hPa | 0 mm | - | - | - |
| 1778191816 | 18.33° C | 63% | 1015.7 hPa | 0 mm | - | - | - |
| 1778189415 | 18.89° C | 66% | 1015.6 hPa | 0 mm | - | - | - |
| 1778185815 | 18.33° C | 70% | 1015.5 hPa | 0 mm | - | - | - |
| 1778181015 | 17.78° C | 77% | 1015.8 hPa | 0 mm | - | - | - |
| 1778166035 | 15° C | 90% | 1016.9 hPa | 0 mm | - | - | - |
| 1778165415 | 14.44° C | 92% | 1016.7 hPa | 0 mm | - | - | - |
| 1778163636 | 14.44° C | 92% | 1017.4 hPa | 0 mm | - | - | - |
| 1778161815 | 14.44° C | 92% | 1017.3 hPa | 0 mm | - | - | - |
* Rain latest hour (hover to see other rain measurements)
** Current wind speed in m/s (hover to see current wind gust speed)